createdAt,value
2022-12-23T00:01:55.778Z,7.04
2022-12-23T00:04:23.170Z,7.02
2022-12-23T00:06:50.509Z,7.03
2022-12-23T00:09:17.775Z,7.04
2022-12-23T00:11:45.011Z,7.06
2022-12-23T00:14:20.387Z,7.02
2022-12-23T00:16:49.807Z,7.07
2022-12-23T00:19:17.148Z,7.03
2022-12-23T00:21:44.520Z,7.05
2022-12-23T00:24:11.895Z,6.97
2022-12-23T00:26:39.237Z,6.99
2022-12-23T00:29:06.583Z,7.07
2022-12-23T00:31:35.321Z,7.02
2022-12-23T00:34:02.678Z,6.97
2022-12-23T00:36:30.837Z,7.01
2022-12-23T00:38:59.703Z,7.01
2022-12-23T00:41:27.046Z,6.97
2022-12-23T00:43:54.299Z,6.98
2022-12-23T00:46:21.741Z,7.00
2022-12-23T00:48:50.445Z,7.01
2022-12-23T00:51:17.748Z,7.02
2022-12-23T00:53:45.032Z,7.04
2022-12-23T00:56:12.335Z,7.01
2022-12-23T00:58:39.534Z,7.08
2022-12-23T01:01:06.850Z,7.13
2022-12-23T01:03:34.216Z,7.14
2022-12-23T01:06:03.283Z,7.12
2022-12-23T01:08:30.633Z,7.07
2022-12-23T01:11:02.491Z,6.99
2022-12-23T01:13:29.944Z,6.95
2022-12-23T01:16:00.459Z,6.99
2022-12-23T01:18:27.778Z,7.01
2022-12-23T01:20:55.097Z,7.03
2022-12-23T01:23:23.848Z,7.07
2022-12-23T01:25:56.647Z,7.08
2022-12-23T01:28:24.133Z,7.08
2022-12-23T01:30:51.463Z,7.09
2022-12-23T01:33:18.813Z,7.08
2022-12-23T01:35:46.435Z,7.14
2022-12-23T01:38:13.756Z,7.10
2022-12-23T01:40:44.522Z,7.11
2022-12-23T01:43:15.699Z,7.08
2022-12-23T01:45:43.440Z,7.13
2022-12-23T01:48:14.363Z,7.06
2022-12-23T01:50:46.515Z,7.14
2022-12-23T01:53:19.301Z,7.13
2022-12-23T01:55:50.860Z,7.10
2022-12-23T01:58:22.981Z,7.15
2022-12-23T02:00:50.465Z,7.16
2022-12-23T02:03:17.778Z,7.18
2022-12-23T02:05:46.071Z,7.13
2022-12-23T02:08:15.043Z,7.09
2022-12-23T02:11:13.451Z,7.14
2022-12-23T02:13:51.105Z,7.09
2022-12-23T02:16:18.635Z,7.11
2022-12-23T02:19:05.190Z,7.13
2022-12-23T02:21:41.903Z,7.15
2022-12-23T02:24:43.833Z,7.13
2022-12-23T02:27:23.180Z,7.09
2022-12-23T02:30:24.990Z,7.08
2022-12-23T02:33:34.206Z,7.11
2022-12-23T02:36:15.839Z,7.07
2022-12-23T02:38:53.817Z,7.08
2022-12-23T02:41:25.821Z,7.06
2022-12-23T02:43:59.829Z,7.05
2022-12-23T02:46:33.248Z,7.09
2022-12-23T02:49:06.483Z,7.17
2022-12-23T02:51:37.975Z,7.19
2022-12-23T02:54:11.056Z,7.13
2022-12-23T02:56:42.064Z,7.07
2022-12-23T02:59:13.402Z,7.08
2022-12-23T03:01:42.931Z,7.09
2022-12-23T03:04:10.329Z,7.09
2022-12-23T03:06:41.291Z,7.10
2022-12-23T03:09:08.979Z,7.19
2022-12-23T03:11:48.515Z,7.22
2022-12-23T03:14:34.189Z,7.16
2022-12-23T03:17:14.986Z,7.17
2022-12-23T03:19:50.855Z,7.15
2022-12-23T03:22:24.638Z,7.20
2022-12-23T03:24:57.396Z,7.27
2022-12-23T03:27:28.469Z,7.23
2022-12-23T03:30:00.952Z,7.31
2022-12-23T03:32:32.446Z,7.22
2022-12-23T03:35:02.359Z,7.25
2022-12-23T03:37:33.889Z,7.22
2022-12-23T03:40:06.906Z,7.29
2022-12-23T03:42:37.220Z,7.27
2022-12-23T03:45:37.488Z,7.23
2022-12-23T03:48:03.196Z,7.24
2022-12-23T03:50:33.952Z,7.21
2022-12-23T03:53:07.518Z,7.24
2022-12-23T03:55:39.929Z,7.22
2022-12-23T03:58:14.298Z,7.14
2022-12-23T04:00:47.993Z,7.13
2022-12-23T04:03:21.881Z,7.10
2022-12-23T04:05:53.962Z,7.11
2022-12-23T04:08:30.002Z,7.18
2022-12-23T04:10:58.137Z,7.16
2022-12-23T04:13:26.883Z,7.20
2022-12-23T04:15:54.608Z,7.16
2022-12-23T04:18:21.886Z,7.21
2022-12-23T04:20:49.279Z,7.14
2022-12-23T04:23:16.544Z,7.10
2022-12-23T04:25:45.431Z,7.07
2022-12-23T04:28:12.620Z,7.09
2022-12-23T04:30:39.941Z,7.06
2022-12-23T04:33:07.226Z,7.07
2022-12-23T04:35:34.571Z,7.04
2022-12-23T04:38:01.844Z,7.07
2022-12-23T04:40:29.174Z,7.06
2022-12-23T04:42:57.773Z,7.05
2022-12-23T04:45:25.161Z,7.03
2022-12-23T04:47:52.352Z,7.05
2022-12-23T04:50:19.670Z,7.08
2022-12-23T04:52:46.998Z,7.00
2022-12-23T04:55:14.300Z,7.05
2022-12-23T04:57:41.504Z,7.09
2022-12-23T05:00:11.432Z,7.10
2022-12-23T05:02:38.775Z,7.07
2022-12-23T05:05:06.565Z,7.04
2022-12-23T05:07:33.846Z,7.05
2022-12-23T05:10:01.143Z,7.04
2022-12-23T05:12:28.762Z,7.01
2022-12-23T05:14:56.124Z,6.94
2022-12-23T05:17:24.765Z,6.82
2022-12-23T05:19:52.121Z,6.80
2022-12-23T05:22:19.474Z,6.72
2022-12-23T05:24:47.040Z,6.77
2022-12-23T05:27:14.285Z,6.80
2022-12-23T05:29:41.665Z,6.91
2022-12-23T05:32:09.055Z,6.93
2022-12-23T05:34:37.764Z,6.95
2022-12-23T05:37:05.061Z,6.90
2022-12-23T05:39:32.309Z,6.88
2022-12-23T05:41:59.500Z,6.88
2022-12-23T05:44:26.720Z,6.82
2022-12-23T05:46:53.970Z,6.78
2022-12-23T05:49:21.288Z,6.81
2022-12-23T05:51:49.845Z,6.73
2022-12-23T05:54:17.135Z,6.75
2022-12-23T05:56:44.314Z,6.77
2022-12-23T05:59:11.669Z,6.80
2022-12-23T06:01:38.946Z,6.79
2022-12-23T06:04:06.341Z,6.78
2022-12-23T06:06:33.716Z,6.72
2022-12-23T06:09:02.537Z,6.85
2022-12-23T06:11:29.905Z,6.82
2022-12-23T06:13:57.207Z,6.79
2022-12-23T06:16:24.423Z,6.80
2022-12-23T06:18:54.689Z,6.85
2022-12-23T06:21:22.258Z,6.76
2022-12-23T06:23:49.530Z,6.70
2022-12-23T06:26:18.097Z,6.71
2022-12-23T06:28:45.492Z,6.82
2022-12-23T06:31:12.871Z,6.75
2022-12-23T06:33:40.176Z,6.74
2022-12-23T06:36:08.513Z,6.78
2022-12-23T06:38:35.786Z,6.80
2022-12-23T06:41:03.202Z,6.77
2022-12-23T06:43:31.867Z,6.69
2022-12-23T06:45:59.162Z,6.68
2022-12-23T06:48:26.501Z,6.66
2022-12-23T06:50:53.916Z,6.72
2022-12-23T06:53:21.202Z,6.82
2022-12-23T06:55:48.407Z,6.80
2022-12-23T06:58:15.782Z,6.72
2022-12-23T07:00:44.356Z,6.72
2022-12-23T07:03:11.650Z,6.63
2022-12-23T07:05:39.028Z,6.80
2022-12-23T07:08:06.368Z,6.79
2022-12-23T07:10:34.095Z,6.70
2022-12-23T07:13:01.471Z,6.65
2022-12-23T07:15:28.634Z,6.70
2022-12-23T07:17:57.312Z,6.65
2022-12-23T07:20:24.566Z,6.72
2022-12-23T07:22:54.033Z,6.68
2022-12-23T07:25:21.300Z,6.74
2022-12-23T07:27:48.696Z,6.73
2022-12-23T07:30:16.185Z,6.74
2022-12-23T07:32:43.375Z,6.76
2022-12-23T07:35:11.941Z,6.67
2022-12-23T07:37:39.170Z,6.71
2022-12-23T07:40:08.936Z,6.80
2022-12-23T07:42:46.309Z,6.79
2022-12-23T07:45:14.422Z,6.80
2022-12-23T07:47:41.947Z,6.72
2022-12-23T07:50:09.845Z,6.83
2022-12-23T07:52:38.872Z,6.80
2022-12-23T07:55:06.730Z,6.82
2022-12-23T07:57:33.879Z,6.76
2022-12-23T08:00:01.068Z,6.75
2022-12-23T08:02:28.378Z,6.75
2022-12-23T08:04:55.847Z,6.77
2022-12-23T08:07:23.066Z,6.80
2022-12-23T08:09:51.781Z,6.82
2022-12-23T08:12:18.995Z,6.84
2022-12-23T08:14:46.429Z,6.84
2022-12-23T08:17:13.943Z,6.93
2022-12-23T08:19:41.237Z,6.93
2022-12-23T08:22:08.430Z,6.86
2022-12-23T08:24:35.790Z,6.96
2022-12-23T08:27:04.355Z,6.87
2022-12-23T08:29:36.272Z,6.99
2022-12-23T08:32:03.981Z,6.96
2022-12-23T08:34:31.197Z,7.01
2022-12-23T08:36:58.443Z,6.98
2022-12-23T08:39:25.698Z,6.93
2022-12-23T08:41:53.081Z,7.05
2022-12-23T08:44:22.082Z,7.10
2022-12-23T08:46:49.550Z,7.08
2022-12-23T08:49:16.777Z,7.13
2022-12-23T08:51:44.015Z,7.04
2022-12-23T08:54:11.205Z,7.14
2022-12-23T08:56:41.710Z,7.05
2022-12-23T08:59:18.691Z,7.01
2022-12-23T09:01:48.393Z,7.09
2022-12-23T09:04:15.964Z,7.18
2022-12-23T09:06:43.769Z,7.23
2022-12-23T09:09:12.440Z,7.18
2022-12-23T09:11:40.059Z,7.22
2022-12-23T09:14:07.587Z,7.31
2022-12-23T09:16:34.955Z,7.28
2022-12-23T09:19:04.204Z,7.35
2022-12-23T09:21:31.708Z,7.38
2022-12-23T09:23:58.881Z,7.37
2022-12-23T09:26:28.469Z,7.30
2022-12-23T09:28:56.274Z,7.55
2022-12-23T09:31:26.712Z,7.56
2022-12-23T09:33:56.776Z,7.31
2022-12-23T09:36:25.336Z,7.51
2022-12-23T09:38:56.222Z,7.34
2022-12-23T09:41:38.280Z,7.47
2022-12-23T09:44:23.248Z,7.59
2022-12-23T09:46:54.760Z,7.56
2022-12-23T09:49:23.861Z,7.61
2022-12-23T09:51:57.915Z,7.80
2022-12-23T09:54:27.540Z,7.60
2022-12-23T09:56:58.175Z,7.67
2022-12-23T10:00:00.952Z,7.62
2022-12-23T10:02:38.014Z,7.51
2022-12-23T10:05:15.109Z,7.52
2022-12-23T10:07:49.286Z,7.55
2022-12-23T10:10:20.099Z,7.67
2022-12-23T10:12:51.484Z,7.52
2022-12-23T10:15:22.372Z,7.62
2022-12-23T10:17:54.440Z,7.58
2022-12-23T10:20:37.384Z,7.66
2022-12-23T10:23:13.633Z,7.84
2022-12-23T10:25:48.966Z,7.84
2022-12-23T10:28:16.208Z,7.63
2022-12-23T10:31:11.121Z,7.64
2022-12-23T10:33:46.775Z,7.93
2022-12-23T10:36:19.751Z,7.79
2022-12-23T10:38:59.077Z,8.08
2022-12-23T10:41:38.929Z,7.93
2022-12-23T10:44:31.358Z,8.06
2022-12-23T10:47:13.457Z,8.04
2022-12-23T10:49:57.989Z,8.05
2022-12-23T10:52:29.763Z,8.00
2022-12-23T10:54:58.450Z,8.02
2022-12-23T10:57:25.667Z,8.15
2022-12-23T10:59:53.086Z,8.02
2022-12-23T11:02:45.734Z,7.92
2022-12-23T11:05:16.915Z,8.20
2022-12-23T11:07:46.397Z,8.13
2022-12-23T11:10:18.285Z,8.12
2022-12-23T11:12:47.386Z,8.18
2022-12-23T11:15:34.415Z,8.25
2022-12-23T11:18:05.218Z,8.54
2022-12-23T11:20:33.123Z,8.71
2022-12-23T11:23:02.558Z,8.70
2022-12-23T11:25:35.418Z,8.45
2022-12-23T11:28:11.717Z,8.45
2022-12-23T11:30:55.601Z,8.58
2022-12-23T11:33:26.044Z,8.56
2022-12-23T11:36:01.368Z,8.68
2022-12-23T11:38:29.045Z,8.64
2022-12-23T11:40:58.073Z,8.64
2022-12-23T11:43:27.178Z,8.56
2022-12-23T11:46:24.099Z,8.49
2022-12-23T11:49:05.522Z,8.62
2022-12-23T11:51:32.859Z,8.52
2022-12-23T11:54:01.734Z,8.59
2022-12-23T11:56:35.848Z,8.59
2022-12-23T11:59:07.351Z,8.55
2022-12-23T12:01:36.101Z,8.53
2022-12-23T12:04:07.650Z,8.42
2022-12-23T12:06:36.233Z,8.63
2022-12-23T12:09:05.868Z,8.71
2022-12-23T12:11:39.208Z,8.47
2022-12-23T12:14:08.403Z,8.47
2022-12-23T12:16:48.438Z,8.65
2022-12-23T12:19:22.508Z,8.56
2022-12-23T12:21:51.651Z,8.64
2022-12-23T12:24:24.891Z,8.72
2022-12-23T12:26:58.091Z,8.55
2022-12-23T12:29:30.523Z,8.62
2022-12-23T12:32:00.153Z,8.58
2022-12-23T12:34:41.397Z,8.76
2022-12-23T12:37:20.171Z,8.84
2022-12-23T12:39:53.296Z,8.92
2022-12-23T12:42:28.976Z,8.88
2022-12-23T12:45:04.897Z,9.10
2022-12-23T12:47:53.222Z,9.07
2022-12-23T12:50:25.733Z,9.02
2022-12-23T12:52:56.628Z,9.08
2022-12-23T12:55:28.521Z,9.02
2022-12-23T12:57:57.376Z,9.00
2022-12-23T13:00:25.278Z,8.92
2022-12-23T13:03:14.190Z,8.94
2022-12-23T13:05:54.589Z,8.83
2022-12-23T13:08:51.120Z,8.85
2022-12-23T13:11:26.520Z,8.76
2022-12-23T13:14:04.542Z,8.68
2022-12-23T13:16:44.248Z,8.64
2022-12-23T13:19:23.212Z,8.76
2022-12-23T13:21:55.083Z,8.72
2022-12-23T13:24:28.183Z,8.65
2022-12-23T13:27:05.069Z,8.64
2022-12-23T13:29:54.564Z,8.65
2022-12-23T13:32:37.944Z,8.60
2022-12-23T13:35:19.379Z,8.55
2022-12-23T13:37:54.109Z,8.51
2022-12-23T13:40:35.481Z,8.45
2022-12-23T13:43:09.089Z,8.38
2022-12-23T13:45:39.943Z,8.39
2022-12-23T13:48:27.650Z,8.38
2022-12-23T13:51:02.235Z,8.41
2022-12-23T13:53:44.771Z,8.39
2022-12-23T13:56:21.442Z,8.38
2022-12-23T13:58:50.300Z,8.31
2022-12-23T14:01:33.297Z,8.29
2022-12-23T14:04:33.738Z,8.29
2022-12-23T14:07:04.845Z,8.29
2022-12-23T14:09:35.669Z,8.29
2022-12-23T14:12:17.895Z,8.21
2022-12-23T14:14:57.724Z,8.14
2022-12-23T14:17:35.244Z,8.12
2022-12-23T14:20:17.663Z,8.12
2022-12-23T14:22:59.539Z,8.16
2022-12-23T14:25:46.631Z,8.18
2022-12-23T14:28:28.003Z,8.16
2022-12-23T14:30:56.305Z,8.11
2022-12-23T14:33:27.079Z,8.10
2022-12-23T14:35:57.078Z,8.06
2022-12-23T14:38:29.759Z,8.11
2022-12-23T14:41:25.195Z,8.09
2022-12-23T14:43:58.793Z,8.08
2022-12-23T14:47:01.275Z,8.10
2022-12-23T14:49:47.826Z,8.06
2022-12-23T14:52:47.999Z,8.08
2022-12-23T14:55:55.062Z,8.15
2022-12-23T14:59:03.621Z,8.07
2022-12-23T15:01:36.781Z,8.06
2022-12-23T15:04:18.455Z,8.17
2022-12-23T15:06:49.350Z,8.02
2022-12-23T15:09:24.612Z,7.99
2022-12-23T15:11:53.310Z,8.00
2022-12-23T15:14:30.240Z,7.96
2022-12-23T15:16:57.735Z,7.96
2022-12-23T15:19:26.724Z,7.97
2022-12-23T15:22:17.323Z,7.96
2022-12-23T15:24:48.333Z,7.88
2022-12-23T15:27:27.402Z,7.92
2022-12-23T15:29:55.666Z,7.90
2022-12-23T15:32:24.872Z,7.92
2022-12-23T15:34:54.574Z,7.85
2022-12-23T15:37:27.561Z,7.91
2022-12-23T15:40:04.553Z,7.82
2022-12-23T15:42:33.759Z,7.77
2022-12-23T15:45:14.074Z,7.72
2022-12-23T15:47:41.412Z,7.75
2022-12-23T15:50:13.200Z,7.74
2022-12-23T15:52:44.500Z,7.71
2022-12-23T15:55:14.212Z,7.67
2022-12-23T15:57:49.557Z,7.67
2022-12-23T16:00:19.533Z,7.68
2022-12-23T16:03:06.479Z,7.65
2022-12-23T16:05:36.847Z,7.67
2022-12-23T16:08:28.531Z,7.61
2022-12-23T16:11:05.691Z,7.66
2022-12-23T16:13:33.576Z,7.63
2022-12-23T16:16:29.531Z,7.61
2022-12-23T16:18:57.046Z,7.67
2022-12-23T16:21:28.356Z,7.66
2022-12-23T16:23:58.488Z,7.60
2022-12-23T16:26:26.186Z,7.65
2022-12-23T16:28:57.747Z,7.59
2022-12-23T16:31:25.393Z,7.56
2022-12-23T16:33:55.466Z,7.57
2022-12-23T16:36:33.597Z,7.55
2022-12-23T16:39:12.804Z,7.50
2022-12-23T16:41:40.093Z,7.46
2022-12-23T16:44:07.311Z,7.48
2022-12-23T16:46:38.626Z,7.46
2022-12-23T16:49:07.491Z,7.35
2022-12-23T16:51:36.284Z,7.38
2022-12-23T16:54:05.033Z,7.34
2022-12-23T16:56:35.232Z,7.37
2022-12-23T16:59:03.254Z,7.33
2022-12-23T17:01:34.986Z,7.35
2022-12-23T17:04:02.480Z,7.29
2022-12-23T17:06:29.658Z,7.31
2022-12-23T17:08:57.175Z,7.28
2022-12-23T17:11:32.015Z,7.30
2022-12-23T17:14:04.634Z,7.27
2022-12-23T17:16:34.190Z,7.27
2022-12-23T17:19:01.641Z,7.23
2022-12-23T17:21:31.302Z,7.24
2022-12-23T17:24:11.002Z,7.23
2022-12-23T17:26:39.651Z,7.20
2022-12-23T17:29:06.844Z,7.19
2022-12-23T17:31:34.627Z,7.14
2022-12-23T17:34:02.018Z,7.16
2022-12-23T17:36:29.539Z,7.12
2022-12-23T17:38:56.833Z,7.13
2022-12-23T17:41:27.481Z,7.11
2022-12-23T17:43:56.496Z,7.08
2022-12-23T17:46:24.291Z,7.12
2022-12-23T17:48:52.063Z,7.07
2022-12-23T17:51:22.710Z,7.07
2022-12-23T17:53:57.411Z,7.06
2022-12-23T17:56:28.100Z,7.10
2022-12-23T17:58:56.685Z,7.08
2022-12-23T18:01:25.999Z,7.10
2022-12-23T18:03:54.814Z,7.13
2022-12-23T18:06:23.489Z,7.09
2022-12-23T18:08:50.762Z,7.10
2022-12-23T18:11:21.608Z,7.12
2022-12-23T18:13:50.287Z,7.10
2022-12-23T18:16:18.947Z,7.09
2022-12-23T18:18:47.192Z,7.04
2022-12-23T18:21:21.724Z,7.08
2022-12-23T18:23:49.673Z,7.04
2022-12-23T18:26:16.849Z,7.05
2022-12-23T18:28:44.606Z,7.05
2022-12-23T18:31:15.472Z,7.03
2022-12-23T18:33:44.327Z,6.98
2022-12-23T18:36:21.163Z,6.96
2022-12-23T18:38:48.473Z,6.98
2022-12-23T18:41:15.695Z,6.98
2022-12-23T18:43:43.073Z,6.95
2022-12-23T18:46:10.521Z,6.99
2022-12-23T18:48:38.254Z,6.99
2022-12-23T18:51:07.284Z,6.92
2022-12-23T18:53:34.526Z,6.96
2022-12-23T18:56:01.701Z,6.93
2022-12-23T18:58:28.986Z,6.92
2022-12-23T19:00:56.321Z,7.03
2022-12-23T19:03:26.199Z,7.01
2022-12-23T19:05:54.744Z,6.98
2022-12-23T19:08:27.221Z,6.97
2022-12-23T19:10:56.057Z,6.96
2022-12-23T19:13:23.548Z,6.94
2022-12-23T19:15:51.356Z,6.94
2022-12-23T19:18:20.743Z,6.93
2022-12-23T19:20:48.853Z,6.92
2022-12-23T19:23:16.551Z,6.89
2022-12-23T19:25:52.789Z,6.89
2022-12-23T19:28:24.098Z,6.90
2022-12-23T19:30:51.775Z,6.93
2022-12-23T19:33:19.122Z,6.91
2022-12-23T19:35:46.372Z,6.85
2022-12-23T19:38:13.665Z,6.86
2022-12-23T19:40:41.062Z,6.85
2022-12-23T19:43:10.034Z,6.85
2022-12-23T19:45:37.290Z,6.84
2022-12-23T19:48:05.055Z,6.83
2022-12-23T19:50:32.293Z,6.86
2022-12-23T19:52:59.534Z,6.84
2022-12-23T19:55:26.724Z,6.82
2022-12-23T19:57:53.923Z,6.79
2022-12-23T20:00:22.588Z,6.80
2022-12-23T20:02:55.076Z,6.79
2022-12-23T20:05:25.752Z,6.77
2022-12-23T20:07:52.969Z,6.79
2022-12-23T20:10:20.246Z,6.76
2022-12-23T20:12:47.433Z,6.77
2022-12-23T20:15:14.665Z,6.71
2022-12-23T20:17:43.356Z,6.75
2022-12-23T20:20:11.114Z,6.71
2022-12-23T20:22:38.338Z,6.70
2022-12-23T20:25:06.537Z,6.70
2022-12-23T20:27:33.734Z,6.69
2022-12-23T20:30:00.950Z,6.70
2022-12-23T20:32:28.119Z,6.69
2022-12-23T20:34:56.779Z,6.68
2022-12-23T20:37:23.965Z,6.67
2022-12-23T20:39:51.254Z,6.69
2022-12-23T20:42:18.500Z,6.68
2022-12-23T20:44:45.871Z,6.69
2022-12-23T20:47:13.153Z,6.66
2022-12-23T20:49:40.467Z,6.64
2022-12-23T20:52:09.029Z,6.63
2022-12-23T20:54:36.247Z,6.65
2022-12-23T20:57:03.636Z,6.61
2022-12-23T20:59:30.975Z,6.65
2022-12-23T21:01:58.272Z,6.74
2022-12-23T21:04:25.589Z,6.79
2022-12-23T21:06:52.787Z,6.86
2022-12-23T21:09:21.424Z,6.81
2022-12-23T21:11:48.788Z,6.70
2022-12-23T21:14:16.600Z,6.74
2022-12-23T21:16:44.267Z,6.71
2022-12-23T21:19:15.764Z,6.66
2022-12-23T21:21:43.134Z,6.66
2022-12-23T21:24:11.585Z,6.67
2022-12-23T21:26:40.381Z,6.67
2022-12-23T21:29:09.224Z,6.62
2022-12-23T21:31:39.039Z,6.66
2022-12-23T21:34:07.166Z,6.61
2022-12-23T21:36:37.770Z,6.66
2022-12-23T21:39:05.708Z,6.67
2022-12-23T21:41:36.369Z,6.66
2022-12-23T21:44:05.365Z,6.69
2022-12-23T21:46:32.690Z,6.70
2022-12-23T21:49:00.180Z,6.64
2022-12-23T21:51:36.685Z,6.66
2022-12-23T21:54:07.463Z,6.65
2022-12-23T21:56:35.058Z,6.68
2022-12-23T21:59:05.642Z,6.71
2022-12-23T22:01:35.051Z,6.67
2022-12-23T22:04:02.516Z,6.64
2022-12-23T22:06:31.912Z,6.65
2022-12-23T22:08:59.779Z,6.61
2022-12-23T22:11:28.762Z,6.65
2022-12-23T22:13:56.837Z,6.63
2022-12-23T22:16:26.007Z,6.61
2022-12-23T22:18:55.735Z,6.58
2022-12-23T22:21:25.034Z,6.60
2022-12-23T22:23:54.178Z,6.60
2022-12-23T22:26:25.771Z,6.61
2022-12-23T22:28:54.683Z,6.60
2022-12-23T22:31:27.162Z,6.59
2022-12-23T22:33:55.902Z,6.62
2022-12-23T22:36:23.206Z,6.55
2022-12-23T22:38:52.568Z,6.60
2022-12-23T22:41:20.249Z,6.57
2022-12-23T22:43:47.909Z,6.56
2022-12-23T22:46:15.804Z,6.57
2022-12-23T22:48:43.153Z,6.56
2022-12-23T22:51:14.722Z,6.54
2022-12-23T22:53:42.320Z,6.57
2022-12-23T22:56:12.154Z,6.56
2022-12-23T22:58:39.729Z,6.53
2022-12-23T23:01:16.381Z,6.52
2022-12-23T23:03:43.605Z,6.54
2022-12-23T23:06:12.168Z,6.52
2022-12-23T23:08:42.048Z,6.53
2022-12-23T23:11:10.431Z,6.52
2022-12-23T23:13:37.723Z,6.51
2022-12-23T23:16:05.441Z,6.49
2022-12-23T23:18:32.862Z,6.46
2022-12-23T23:21:00.407Z,6.46
2022-12-23T23:23:29.121Z,6.46
2022-12-23T23:25:56.353Z,6.49
2022-12-23T23:28:23.699Z,6.49
2022-12-23T23:31:09.755Z,6.44
2022-12-23T23:33:38.256Z,6.48
2022-12-23T23:36:06.538Z,6.46
2022-12-23T23:38:35.181Z,6.46
2022-12-23T23:41:02.465Z,6.42
2022-12-23T23:43:29.756Z,6.37
2022-12-23T23:45:57.030Z,6.38
2022-12-23T23:48:24.307Z,6.36
2022-12-23T23:50:51.607Z,6.34
2022-12-23T23:53:18.945Z,6.37
2022-12-23T23:55:47.544Z,6.42
2022-12-23T23:58:14.803Z,6.38
